createdAt,value
2019-01-27T00:00:29.620Z,67.40
2019-01-27T00:02:59.996Z,73.87
2019-01-27T00:05:30.344Z,68.87
2019-01-27T00:08:00.727Z,65.17
2019-01-27T00:10:31.076Z,62.67
2019-01-27T00:13:01.455Z,67.63
2019-01-27T00:15:32.057Z,62.87
2019-01-27T00:18:03.727Z,62.33
2019-01-27T00:20:34.385Z,58.97
2019-01-27T00:23:06.150Z,58.80
2019-01-27T00:25:37.031Z,61.70
2019-01-27T00:28:12.182Z,58.10
2019-01-27T00:30:43.107Z,56.27
2019-01-27T00:33:16.391Z,61.20
2019-01-27T00:35:53.231Z,63.73
2019-01-27T00:38:37.460Z,63.10
2019-01-27T00:41:21.492Z,63.80
2019-01-27T00:44:00.528Z,58.93
2019-01-27T00:46:42.219Z,57.27
2019-01-27T00:49:19.287Z,58.57
2019-01-27T00:51:55.740Z,56.37
2019-01-27T00:54:28.139Z,57.87
2019-01-27T00:57:01.447Z,52.97
2019-01-27T00:59:31.834Z,55.43
2019-01-27T01:02:06.770Z,52.80
2019-01-27T01:04:39.332Z,52.87
2019-01-27T01:07:10.219Z,52.80
2019-01-27T01:09:40.567Z,55.53
2019-01-27T01:12:10.951Z,53.23
2019-01-27T01:14:41.307Z,51.33
2019-01-27T01:17:11.692Z,52.67
2019-01-27T01:19:42.035Z,57.70
2019-01-27T01:22:12.489Z,54.07
2019-01-27T01:24:42.887Z,51.63
2019-01-27T01:27:13.231Z,53.40
2019-01-27T01:29:43.611Z,54.33
2019-01-27T01:32:13.959Z,55.07
2019-01-27T01:34:44.503Z,55.53
2019-01-27T01:37:14.895Z,56.20
2019-01-27T01:39:45.287Z,48.87
2019-01-27T01:42:15.806Z,53.63
2019-01-27T01:44:46.268Z,53.83
2019-01-27T01:47:16.611Z,56.63
2019-01-27T01:49:47.060Z,53.50
2019-01-27T01:52:17.415Z,56.37
2019-01-27T01:54:47.763Z,56.37
2019-01-27T01:57:18.140Z,56.57
2019-01-27T01:59:48.488Z,57.83
2019-01-27T02:02:18.952Z,56.67
2019-01-27T02:04:49.291Z,58.10
2019-01-27T02:07:19.671Z,58.37
2019-01-27T02:09:50.023Z,57.33
2019-01-27T02:12:20.427Z,53.43
2019-01-27T02:14:50.905Z,54.83
2019-01-27T02:17:21.276Z,58.47
2019-01-27T02:19:51.631Z,55.67
2019-01-27T02:22:21.371Z,55.23
2019-01-27T02:24:51.707Z,57.83
2019-01-27T02:27:21.439Z,53.60
2019-01-27T02:29:51.687Z,54.13
2019-01-27T02:32:21.420Z,57.47
2019-01-27T02:34:51.731Z,58.13
2019-01-27T02:37:22.108Z,57.90
2019-01-27T02:39:52.448Z,52.47
2019-01-27T02:42:22.152Z,53.87
2019-01-27T02:44:52.415Z,52.83
2019-01-27T02:47:22.107Z,53.27
2019-01-27T02:49:52.363Z,52.67
2019-01-27T02:52:22.055Z,54.30
2019-01-27T02:54:52.316Z,50.87
2019-01-27T02:57:22.007Z,53.33
2019-01-27T02:59:52.861Z,53.10
2019-01-27T03:02:22.672Z,49.67
2019-01-27T03:04:54.560Z,49.33
2019-01-27T03:07:35.907Z,47.70
2019-01-27T03:10:10.655Z,46.70
2019-01-27T03:12:40.993Z,44.93
2019-01-27T03:15:11.491Z,43.67
2019-01-27T03:17:41.860Z,44.43
2019-01-27T03:20:12.327Z,39.87
2019-01-27T03:22:42.022Z,42.27
2019-01-27T03:25:12.800Z,38.30
2019-01-27T03:27:43.220Z,40.10
2019-01-27T03:30:16.608Z,38.23
2019-01-27T03:32:47.334Z,35.93
2019-01-27T03:35:17.831Z,35.87
2019-01-27T03:37:48.211Z,34.53
2019-01-27T03:40:18.721Z,33.90
2019-01-27T03:42:49.373Z,34.00
2019-01-27T03:45:19.707Z,32.33
2019-01-27T03:47:50.225Z,30.40
2019-01-27T03:50:21.033Z,32.33
2019-01-27T03:52:51.507Z,33.17
2019-01-27T03:55:21.919Z,31.57
2019-01-27T03:57:52.287Z,30.60
2019-01-27T04:00:22.823Z,32.50
2019-01-27T04:02:53.324Z,30.07
2019-01-27T04:05:23.743Z,32.20
2019-01-27T04:07:54.156Z,30.97
2019-01-27T04:10:23.883Z,32.27
2019-01-27T04:12:55.303Z,32.47
2019-01-27T04:15:25.951Z,31.03
2019-01-27T04:17:56.291Z,31.77
2019-01-27T04:20:26.631Z,32.33
2019-01-27T04:22:56.981Z,31.63
2019-01-27T04:25:27.312Z,32.03
2019-01-27T04:27:57.656Z,31.37
2019-01-27T04:30:33.736Z,32.63
2019-01-27T04:33:04.179Z,31.67
2019-01-27T04:35:34.516Z,31.23
2019-01-27T04:38:04.969Z,29.63
2019-01-27T04:40:35.378Z,29.63
2019-01-27T04:43:05.829Z,29.33
2019-01-27T04:45:37.642Z,28.90
2019-01-27T04:48:09.079Z,28.93
2019-01-27T04:50:38.794Z,30.50
2019-01-27T04:53:09.426Z,30.77
2019-01-27T04:55:39.195Z,27.50
2019-01-27T04:58:09.449Z,28.93
2019-01-27T05:00:39.306Z,28.00
2019-01-27T05:03:46.700Z,28.87
2019-01-27T05:06:17.167Z,28.17
2019-01-27T05:08:47.511Z,28.20
2019-01-27T05:11:17.855Z,28.37
2019-01-27T05:13:48.189Z,27.10
2019-01-27T05:16:19.435Z,28.20
2019-01-27T05:18:49.787Z,26.53
2019-01-27T05:21:20.156Z,28.60
2019-01-27T05:23:50.491Z,26.87
2019-01-27T05:26:20.843Z,27.03
2019-01-27T05:28:51.179Z,25.00
2019-01-27T05:31:21.563Z,25.93
2019-01-27T05:33:51.940Z,25.67
2019-01-27T05:36:22.303Z,24.07
2019-01-27T05:38:52.667Z,25.67
2019-01-27T05:41:23.014Z,24.10
2019-01-27T05:43:53.380Z,26.67
2019-01-27T05:46:23.791Z,23.67
2019-01-27T05:48:54.201Z,23.63
2019-01-27T05:51:24.564Z,22.90
2019-01-27T05:53:55.136Z,24.10
2019-01-27T05:56:25.503Z,24.83
2019-01-27T05:58:55.872Z,23.30
2019-01-27T06:01:26.284Z,24.87
2019-01-27T06:03:56.659Z,23.87
2019-01-27T06:06:26.996Z,24.13
2019-01-27T06:08:57.343Z,24.27
2019-01-27T06:11:27.097Z,23.13
2019-01-27T06:13:57.404Z,24.30
2019-01-27T06:16:27.135Z,23.30
2019-01-27T06:18:58.670Z,23.83
2019-01-27T06:21:29.076Z,24.30
2019-01-27T06:23:58.772Z,23.43
2019-01-27T06:26:29.192Z,23.80
2019-01-27T06:28:59.587Z,23.43
2019-01-27T06:31:29.959Z,24.07
2019-01-27T06:34:09.663Z,22.87
2019-01-27T06:36:40.028Z,23.33
2019-01-27T06:39:10.596Z,23.23
2019-01-27T06:41:40.355Z,24.20
2019-01-27T06:44:10.678Z,21.63
2019-01-27T06:46:40.507Z,25.67
2019-01-27T06:49:10.787Z,24.87
2019-01-27T06:51:40.635Z,24.03
2019-01-27T06:54:10.903Z,23.57
2019-01-27T06:56:40.603Z,24.00
2019-01-27T06:59:30.045Z,24.10
2019-01-27T07:02:45.339Z,25.07
2019-01-27T07:05:36.275Z,24.13
2019-01-27T07:08:18.728Z,23.90
2019-01-27T07:11:20.316Z,23.90
2019-01-27T07:14:15.748Z,23.50
2019-01-27T07:17:14.189Z,23.77
2019-01-27T07:20:02.206Z,24.17
2019-01-27T07:22:43.969Z,22.03
2019-01-27T07:25:51.242Z,24.37
2019-01-27T07:28:46.074Z,23.80
2019-01-27T07:31:35.272Z,25.07
2019-01-27T07:34:34.063Z,23.83
2019-01-27T07:37:22.348Z,23.00
2019-01-27T07:40:10.103Z,23.50
2019-01-27T07:42:49.287Z,22.53
2019-01-27T07:45:27.352Z,24.17
2019-01-27T07:48:25.943Z,22.80
2019-01-27T07:51:12.004Z,23.07
2019-01-27T07:53:56.666Z,22.57
2019-01-27T07:56:44.333Z,22.10
2019-01-27T07:59:42.331Z,25.30
2019-01-27T08:02:40.475Z,22.77
2019-01-27T08:05:29.767Z,20.30
2019-01-27T08:08:17.368Z,20.90
2019-01-27T08:11:05.013Z,20.47
2019-01-27T08:13:40.731Z,18.77
2019-01-27T08:16:28.501Z,18.80
2019-01-27T08:19:16.219Z,18.37
2019-01-27T08:22:05.399Z,18.03
2019-01-27T08:24:54.639Z,20.13
2019-01-27T08:27:56.867Z,20.43
2019-01-27T08:30:46.115Z,19.23
2019-01-27T08:33:47.417Z,19.33
2019-01-27T08:36:26.432Z,19.17
2019-01-27T08:39:20.980Z,20.93
2019-01-27T08:42:13.381Z,17.63
2019-01-27T08:45:05.196Z,17.10
2019-01-27T08:47:35.447Z,16.83
2019-01-27T08:50:08.899Z,16.27
2019-01-27T08:52:39.247Z,16.40
2019-01-27T08:55:11.603Z,20.43
2019-01-27T08:57:42.027Z,18.27
2019-01-27T09:00:15.767Z,19.17
2019-01-27T09:03:10.836Z,18.13
2019-01-27T09:05:52.759Z,17.40
2019-01-27T09:09:00.380Z,18.37
2019-01-27T09:12:05.042Z,21.87
2019-01-27T09:14:54.413Z,20.47
2019-01-27T09:17:42.467Z,16.43
2019-01-27T09:20:35.887Z,15.97
2019-01-27T09:23:34.140Z,15.80
2019-01-27T09:26:24.100Z,15.60
2019-01-27T09:29:07.872Z,16.73
2019-01-27T09:32:00.348Z,16.63
2019-01-27T09:34:41.499Z,15.80
2019-01-27T09:37:30.763Z,17.23
2019-01-27T09:40:13.903Z,17.37
2019-01-27T09:43:10.535Z,17.10
2019-01-27T09:46:05.533Z,16.43
2019-01-27T09:48:46.068Z,16.23
2019-01-27T09:51:27.972Z,16.93
2019-01-27T09:54:16.183Z,17.50
2019-01-27T09:56:55.783Z,16.70
2019-01-27T09:59:50.019Z,16.60
2019-01-27T10:02:34.787Z,16.93
2019-01-27T10:05:22.441Z,17.90
2019-01-27T10:08:11.820Z,17.77
2019-01-27T10:10:59.655Z,17.23
2019-01-27T10:13:56.323Z,18.63
2019-01-27T10:16:32.791Z,17.53
2019-01-27T10:19:10.293Z,18.33
2019-01-27T10:22:11.327Z,18.93
2019-01-27T10:25:06.723Z,20.33
2019-01-27T10:28:59.774Z,19.50
2019-01-27T10:31:45.698Z,19.63
2019-01-27T10:34:34.304Z,20.23
2019-01-27T10:37:22.425Z,19.47
2019-01-27T10:40:09.155Z,19.37
2019-01-27T10:42:47.412Z,19.47
2019-01-27T10:45:39.907Z,17.80
2019-01-27T10:48:31.916Z,23.70
2019-01-27T10:51:20.642Z,25.30
2019-01-27T10:54:02.859Z,29.77
2019-01-27T10:56:50.715Z,31.57
2019-01-27T10:59:40.050Z,34.63
2019-01-27T11:02:37.197Z,30.50
2019-01-27T11:05:27.387Z,35.73
2019-01-27T11:08:28.809Z,19.80
2019-01-27T11:11:16.490Z,31.17
2019-01-27T11:14:04.073Z,20.80
2019-01-27T11:16:51.775Z,18.60
2019-01-27T11:19:45.874Z,17.00
2019-01-27T11:22:35.529Z,17.73
2019-01-27T11:25:30.101Z,18.57
2019-01-27T11:28:22.859Z,42.90
2019-01-27T11:31:11.024Z,34.40
2019-01-27T11:34:00.436Z,28.20
2019-01-27T11:36:55.778Z,28.37
2019-01-27T11:39:45.516Z,27.60
2019-01-27T11:42:34.599Z,25.87
2019-01-27T11:45:25.023Z,23.83
2019-01-27T11:48:20.251Z,26.30
2019-01-27T11:51:21.656Z,26.80
2019-01-27T11:53:52.043Z,25.97
2019-01-27T11:56:22.461Z,23.13
2019-01-27T11:58:52.974Z,21.10
2019-01-27T12:01:23.447Z,20.80
2019-01-27T12:03:53.860Z,17.80
2019-01-27T12:06:24.347Z,18.97
2019-01-27T12:08:54.797Z,20.43
2019-01-27T12:11:25.267Z,20.03
2019-01-27T12:13:58.164Z,18.47
2019-01-27T12:16:28.619Z,18.67
2019-01-27T12:18:59.064Z,18.37
2019-01-27T12:21:29.493Z,18.77
2019-01-27T12:23:59.907Z,17.53
2019-01-27T12:26:30.272Z,17.43
2019-01-27T12:28:59.964Z,18.50
2019-01-27T12:31:30.267Z,19.33
2019-01-27T12:34:00.607Z,21.13
2019-01-27T12:36:30.959Z,19.70
2019-01-27T12:39:01.331Z,18.33
2019-01-27T12:41:35.483Z,22.13
2019-01-27T12:44:11.793Z,19.07
2019-01-27T12:51:13.021Z,21.03
2019-01-27T13:03:38.184Z,18.07
2019-01-27T13:07:30.345Z,18.73
2019-01-27T13:12:46.095Z,17.27
2019-01-27T13:16:03.525Z,16.70
2019-01-27T13:18:46.389Z,16.27
2019-01-27T13:22:23.403Z,16.90
2019-01-27T13:25:37.569Z,17.63
2019-01-27T13:28:50.837Z,18.40
2019-01-27T13:38:51.094Z,22.57
2019-01-27T13:42:17.324Z,18.10
2019-01-27T13:45:41.905Z,17.33
2019-01-27T13:48:15.444Z,16.27
2019-01-27T13:51:29.759Z,16.63
2019-01-27T13:54:01.352Z,16.63
2019-01-27T13:56:31.812Z,16.97
2019-01-27T13:59:02.291Z,16.63
2019-01-27T14:01:32.079Z,16.17
2019-01-27T14:04:02.384Z,16.10
2019-01-27T14:06:32.171Z,16.47
2019-01-27T14:09:01.823Z,18.07
2019-01-27T14:11:32.837Z,18.97
2019-01-27T14:14:03.343Z,17.93
2019-01-27T14:16:33.683Z,17.40
2019-01-27T14:19:05.444Z,17.87
2019-01-27T14:21:35.399Z,17.30
2019-01-27T14:24:06.483Z,15.80
2019-01-27T14:26:38.659Z,16.33
2019-01-27T14:29:10.138Z,15.93
2019-01-27T14:31:39.975Z,15.13
2019-01-27T14:34:10.395Z,16.60
2019-01-27T14:36:42.645Z,16.67
2019-01-27T14:39:12.793Z,16.17
2019-01-27T14:41:43.089Z,17.53
2019-01-27T14:44:13.543Z,17.70
2019-01-27T14:46:46.066Z,17.07
2019-01-27T14:52:01.729Z,19.13
2019-01-27T14:54:31.580Z,27.90
2019-01-27T14:57:01.867Z,20.43
2019-01-27T14:59:32.251Z,18.57
2019-01-27T15:02:01.971Z,17.77
2019-01-27T15:04:32.231Z,20.20
2019-01-27T15:07:01.948Z,24.27
2019-01-27T15:09:35.916Z,26.27
2019-01-27T15:12:06.311Z,27.27
2019-01-27T15:14:36.135Z,24.13
2019-01-27T15:17:06.407Z,20.37
2019-01-27T15:19:36.199Z,18.47
2019-01-27T15:22:06.467Z,16.67
2019-01-27T15:24:36.991Z,17.43
2019-01-27T15:27:07.365Z,17.20
2019-01-27T15:29:37.106Z,18.53
2019-01-27T15:32:07.358Z,16.87
2019-01-27T15:34:37.863Z,15.57
2019-01-27T15:37:08.248Z,16.73
2019-01-27T15:39:37.935Z,17.50
2019-01-27T15:42:09.323Z,16.03
2019-01-27T15:44:39.661Z,20.37
2019-01-27T15:47:09.367Z,18.03
2019-01-27T15:49:39.624Z,18.83
2019-01-27T15:52:10.044Z,18.90
2019-01-27T15:54:39.775Z,17.63
2019-01-27T15:57:10.171Z,17.47
2019-01-27T15:59:40.505Z,17.70
2019-01-27T16:02:10.913Z,16.47
2019-01-27T16:04:40.639Z,17.20
2019-01-27T16:07:10.955Z,16.07
2019-01-27T16:09:41.328Z,16.17
2019-01-27T16:16:13.931Z,19.03
2019-01-27T16:18:44.350Z,22.67
2019-01-27T16:21:14.867Z,33.33
2019-01-27T16:23:50.103Z,24.47
2019-01-27T16:26:19.918Z,18.77
2019-01-27T16:32:06.449Z,21.03
2019-01-27T16:34:40.035Z,20.20
2019-01-27T16:37:10.033Z,17.83
2019-01-27T16:39:39.731Z,18.10
2019-01-27T16:42:09.992Z,18.60
2019-01-27T16:44:40.327Z,18.80
2019-01-27T16:47:10.827Z,15.20
2019-01-27T16:49:43.532Z,22.70
2019-01-27T16:52:42.586Z,17.90
2019-01-27T16:55:24.978Z,15.10
2019-01-27T16:58:01.073Z,14.83
2019-01-27T17:01:16.008Z,16.57
2019-01-27T17:03:46.794Z,15.90
2019-01-27T17:06:16.563Z,15.37
2019-01-27T17:08:47.227Z,14.13
2019-01-27T17:11:17.231Z,14.13
2019-01-27T17:13:50.907Z,15.10
2019-01-27T17:19:36.955Z,16.07
2019-01-27T17:22:04.826Z,15.93
2019-01-27T17:24:35.298Z,14.90
2019-01-27T20:06:44.167Z,16.93
2019-01-27T20:09:45.504Z,16.10
2019-01-27T20:12:31.091Z,18.23
2019-01-27T20:15:21.266Z,16.87
2019-01-27T20:18:03.186Z,16.07
2019-01-27T20:20:43.112Z,17.73
2019-01-27T20:23:31.802Z,17.70
2019-01-27T20:26:20.017Z,18.90
2019-01-27T20:29:07.967Z,26.00
2019-01-27T20:32:03.494Z,23.37
2019-01-27T20:34:53.687Z,23.07
2019-01-27T20:37:34.551Z,24.47
2019-01-27T20:40:15.693Z,26.60
2019-01-27T20:42:54.967Z,20.80
2019-01-27T20:45:53.835Z,20.80
2019-01-27T20:48:45.931Z,21.43
2019-01-27T20:51:28.119Z,20.60
2019-01-27T20:54:20.139Z,18.17
2019-01-27T20:56:59.415Z,20.00
2019-01-27T20:59:51.654Z,19.10
2019-01-27T21:02:55.531Z,19.80
2019-01-27T21:05:59.967Z,18.87
2019-01-27T21:08:47.955Z,23.10
2019-01-27T21:11:36.063Z,20.03
2019-01-27T21:14:25.104Z,21.30
2019-01-27T21:17:17.561Z,21.50
2019-01-27T21:19:54.123Z,19.87
2019-01-27T21:22:24.659Z,19.80
2019-01-27T21:24:55.026Z,18.47
2019-01-27T21:27:25.051Z,19.67
2019-01-27T21:29:55.746Z,18.77
2019-01-27T21:32:26.107Z,18.83
2019-01-27T21:34:56.515Z,17.37
2019-01-27T21:37:26.423Z,15.97
2019-01-27T21:39:56.975Z,17.20
2019-01-27T21:42:27.344Z,17.40
2019-01-27T21:44:57.674Z,17.33
2019-01-27T21:47:28.043Z,17.93
2019-01-27T21:49:58.399Z,17.57
2019-01-27T21:52:28.766Z,17.40
2019-01-27T21:54:59.159Z,18.67
2019-01-27T21:57:30.915Z,17.90
2019-01-27T22:00:01.225Z,17.27
2019-01-27T22:02:32.684Z,17.87
2019-01-27T22:05:03.285Z,17.10
2019-01-27T22:07:34.763Z,16.33
2019-01-27T22:10:06.099Z,17.77
2019-01-27T22:12:37.219Z,17.93
2019-01-27T22:15:07.779Z,16.13
2019-01-27T22:17:38.147Z,16.60
2019-01-27T22:20:10.474Z,17.40
2019-01-27T22:22:41.771Z,16.97
2019-01-27T22:25:13.178Z,18.50
2019-01-27T22:27:43.676Z,16.47
2019-01-27T22:30:19.559Z,16.83
2019-01-27T22:32:49.913Z,15.60
2019-01-27T22:35:20.339Z,15.13
2019-01-27T22:37:50.699Z,17.33
2019-01-27T22:40:21.039Z,16.30
2019-01-27T22:42:51.383Z,17.80
2019-01-27T22:45:22.524Z,16.50
2019-01-27T22:47:52.359Z,17.27
2019-01-27T22:50:23.028Z,17.83
2019-01-27T22:52:53.420Z,18.27
2019-01-27T22:55:23.763Z,16.67
2019-01-27T22:57:54.115Z,16.23
2019-01-27T23:00:58.703Z,17.33
2019-01-27T23:03:31.096Z,16.77
2019-01-27T23:06:01.449Z,16.90
2019-01-27T23:08:31.827Z,17.50
2019-01-27T23:11:03.227Z,15.97
2019-01-27T23:13:33.571Z,17.27
2019-01-27T23:16:04.130Z,16.00
2019-01-27T23:18:34.491Z,16.53
2019-01-27T23:21:05.423Z,17.10
2019-01-27T23:23:35.820Z,17.37
2019-01-27T23:26:06.289Z,16.33
2019-01-27T23:28:36.815Z,17.77
2019-01-27T23:31:07.256Z,18.43
2019-01-27T23:33:37.728Z,17.53
2019-01-27T23:36:08.071Z,16.97
2019-01-27T23:38:38.448Z,16.40
2019-01-27T23:41:08.871Z,15.90
2019-01-27T23:43:39.207Z,15.93
2019-01-27T23:46:09.596Z,15.63
2019-01-27T23:48:39.959Z,15.73
2019-01-27T23:51:10.324Z,15.80
2019-01-27T23:53:41.120Z,16.97
2019-01-27T23:56:11.995Z,16.53
2019-01-27T23:58:42.336Z,17.43
